Terminal Aerodrome Forecast
Issued by NWS

Home | Current Version | Previous Version | Graphics & Text | Print | Product List | Glossary On
Versions: 1 2 3 4 5 6 7 8 9 10 11 12 13 14 15 16 17 18
000
FTUS43 KTOP 181700
TAFMHK
TAF
KMHK 181733Z 1818/1918 16006KT P6SM BKN009 OVC050
     FM181900 15006KT P6SM BKN013 OVC050
     FM182100 15008KT P6SM BKN050
     FM190600 21002KT 4SM -TSRA BKN040CB
     FM191300 35004KT P6SM VCSH OVC035=

USA.gov is the U.S. government's official web portal to all federal, state and local government web resources and services.